Main page
METAR-TAF:

METAR-TAF

Airports :

Sialkot International Airport

Sialkot, Pakistan

latitude: 32-32N, longitude: 74-22E, elevation: 255 m

Current weather observation

The report was made 32 minutes ago, at 04:00 UTC
Wind 7 kt from the Southeast
Temperature 29°C
Humidity 79%
Pressure 1001 hPa
Visibility: 4000 m
Scattered clouds at a height of 4000 ft
Scattered clouds at a height of 10000 ft
smoke

METAR: OPST 220400Z 13007KT 4000 FU SCT040 SCT100 29/25 Q1001 RERA TEMPO 13030KT 1500 TSRA FEW030CB RH81

Time: 09:32 (04:32 UTC)


TAF: missing

Weather observations and forecasts of more than 4000 airports (METAR and TAF reports).

The available stations are represented by yellow and red dots on the map.

Hover mouse over dot to see the name of the station.

Then click to see weather observations and forecasts.

To change the map : click on the green buttons with a black cross to zoom in, on the green button with a dash to zoom out, or on the green arrows for adjacent maps.


METAR-TAF: